Portada
METAR-TAF:

METAR-TAF

Aeroports :

Seyresse

Dacs, França

latitud: 43-41N, longitud: 001-04W, altitud: 32 m

Observació

L'informe es va fer fa 16 minuts, a les 23:30 UTC
Vent 2 kt amb direcció variable
Temperatura 3°C
Humitat 93%
Pressió 1013 hPa
Visibilitat 10 km o més

METAR: LFBY 192330Z AUTO VRB02KT 9999 // ////// 03/02 Q1013

Hora: 00:46 (23:46 UTC)

Pronòstic

L'informe es va fer fa 15 hores i 46 minuts, a les 08:00 UTC
Pronòstic vàlid del 19 a les 09 UTC al 19 a les 18 UTC
Vent 3 kt del Nord-Est
Visibilitat: 4000 m
boirina
Evolucionant progressivament
l' 19 a les 09 UTC al 19 a les 10 UTC
Visibilitat 10 km o més
sense núvols per sota de 1500 mi sense presència de cumulonimbus.

TAF: LFBY 190800Z 1909/1918 05003KT 4000 BR NSC BECMG 1909/1910 CAVOK

Observacions i pronòstics meteorològics de més de 4000 aeroports (METAR i TAF).

Les estacions disponibles són els punts grocs i vermells al mapa.

Posi el ratolí al punt desitjat per veure el nom de l'estació.

Feu clic per veure les observacions i els pronòstics meteorològics.

Per canviar el mapa: feu clic els botons verds amb una creu de color negre per apropar; al botó verd amb un guió per allunyar la imatge; o en les fletxes verdes per a mapes adjacents.


METAR-TAF: